sensor_id;sensor_type;location;lat;lon;timestamp;pressure;altitude;pressure_sealevel;temperature;humidity
37200;BME280;23096;50.892;16.746;2022-08-14T04:49:10;99006.12;;;19.16;80.87
37200;BME280;23096;50.892;16.746;2022-08-14T04:51:38;99000.56;;;19.15;80.93
37200;BME280;23096;50.892;16.746;2022-08-14T04:54:04;98998.09;;;19.19;80.91
37200;BME280;23096;50.892;16.746;2022-08-14T04:56:30;98996.20;;;19.21;80.86
37200;BME280;23096;50.892;16.746;2022-08-14T04:58:59;98993.96;;;19.22;80.83
37200;BME280;23096;50.892;16.746;2022-08-14T05:01:29;98989.08;;;19.23;80.84
37200;BME280;23096;50.892;16.746;2022-08-14T05:03:56;98992.07;;;19.24;80.79
37200;BME280;23096;50.892;16.746;2022-08-14T05:06:22;98991.14;;;19.25;80.81
37200;BME280;23096;50.892;16.746;2022-08-14T05:08:48;98994.47;;;19.27;80.84
37200;BME280;23096;50.892;16.746;2022-08-14T05:11:14;98992.20;;;19.28;80.85
37200;BME280;23096;50.892;16.746;2022-08-14T05:13:41;98986.66;;;19.33;80.89
37200;BME280;23096;50.892;16.746;2022-08-14T05:16:08;98990.61;;;19.39;80.91
37200;BME280;23096;50.892;16.746;2022-08-14T05:18:37;98985.41;;;19.44;80.93
37200;BME280;23096;50.892;16.746;2022-08-14T05:21:06;98981.16;;;19.49;80.93
37200;BME280;23096;50.892;16.746;2022-08-14T05:23:35;98976.78;;;19.55;80.96
37200;BME280;23096;50.892;16.746;2022-08-14T05:26:03;98975.61;;;19.59;80.88
37200;BME280;23096;50.892;16.746;2022-08-14T05:28:34;98977.52;;;19.63;80.85
37200;BME280;23096;50.892;16.746;2022-08-14T05:31:04;98973.73;;;19.67;80.77
37200;BME280;23096;50.892;16.746;2022-08-14T05:33:33;98972.80;;;19.68;80.66
37200;BME280;23096;50.892;16.746;2022-08-14T05:36:03;98973.99;;;19.69;80.63
37200;BME280;23096;50.892;16.746;2022-08-14T05:38:40;98970.31;;;19.72;80.63
37200;BME280;23096;50.892;16.746;2022-08-14T05:41:10;98974.41;;;19.76;80.60
37200;BME280;23096;50.892;16.746;2022-08-14T05:43:38;98975.47;;;19.79;80.52
37200;BME280;23096;50.892;16.746;2022-08-14T05:46:11;98974.05;;;19.81;80.45
37200;BME280;23096;50.892;16.746;2022-08-14T05:48:38;98967.89;;;19.82;80.39
37200;BME280;23096;50.892;16.746;2022-08-14T05:51:04;98970.84;;;19.83;80.35
37200;BME280;23096;50.892;16.746;2022-08-14T05:53:31;98971.22;;;19.84;80.29
37200;BME280;23096;50.892;16.746;2022-08-14T05:55:57;98971.56;;;19.85;80.24
37200;BME280;23096;50.892;16.746;2022-08-14T05:58:24;98963.97;;;19.82;80.11
37200;BME280;23096;50.892;16.746;2022-08-14T06:00:52;98961.58;;;19.79;80.09
37200;BME280;23096;50.892;16.746;2022-08-14T06:03:20;98960.75;;;19.78;80.09
37200;BME280;23096;50.892;16.746;2022-08-14T06:05:52;98964.19;;;19.79;80.08
37200;BME280;23096;50.892;16.746;2022-08-14T06:08:24;98963.26;;;19.80;80.09
37200;BME280;23096;50.892;16.746;2022-08-14T06:10:55;98956.13;;;19.82;80.07
37200;BME280;23096;50.892;16.746;2022-08-14T06:13:22;98959.56;;;19.82;80.00
37200;BME280;23096;50.892;16.746;2022-08-14T06:15:49;98952.21;;;19.82;79.98
37200;BME280;23096;50.892;16.746;2022-08-14T06:18:17;98957.78;;;19.83;79.97
37200;BME280;23096;50.892;16.746;2022-08-14T06:20:44;98958.16;;;19.84;79.91
37200;BME280;23096;50.892;16.746;2022-08-14T06:23:10;98953.86;;;19.83;79.83
37200;BME280;23096;50.892;16.746;2022-08-14T06:25:36;98958.38;;;19.81;79.39
37200;BME280;23096;50.892;16.746;2022-08-14T06:28:03;98958.38;;;19.81;79.39
37200;BME280;23096;50.892;16.746;2022-08-14T06:30:32;98954.11;;;19.80;79.63
37200;BME280;23096;50.892;16.746;2022-08-14T06:32:59;98948.99;;;19.78;79.58
37200;BME280;23096;50.892;16.746;2022-08-14T06:35:26;98949.59;;;19.76;79.52
37200;BME280;23096;50.892;16.746;2022-08-14T06:37:55;98950.03;;;19.76;79.46
37200;BME280;23096;50.892;16.746;2022-08-14T06:40:25;98960.49;;;19.76;79.45
37200;BME280;23096;50.892;16.746;2022-08-14T06:43:05;98951.94;;;19.73;79.42
37200;BME280;23096;50.892;16.746;2022-08-14T06:45:33;98959.52;;;19.71;79.34
37200;BME280;23096;50.892;16.746;2022-08-14T06:48:00;98964.13;;;19.67;79.29
37200;BME280;23096;50.892;16.746;2022-08-14T06:50:27;98959.50;;;19.65;79.33
37200;BME280;23096;50.892;16.746;2022-08-14T06:52:57;98971.11;;;19.67;79.37
37200;BME280;23096;50.892;16.746;2022-08-14T06:55:24;98962.72;;;19.69;79.41
37200;BME280;23096;50.892;16.746;2022-08-14T06:57:51;98962.13;;;19.71;79.41
37200;BME280;23096;50.892;16.746;2022-08-14T07:00:22;98959.55;;;19.77;79.52
37200;BME280;23096;50.892;16.746;2022-08-14T07:02:50;98957.67;;;19.84;79.60
37200;BME280;23096;50.892;16.746;2022-08-14T07:05:36;98956.64;;;19.93;79.60
37200;BME280;23096;50.892;16.746;2022-08-14T07:08:21;98952.35;;;19.97;79.54
37200;BME280;23096;50.892;16.746;2022-08-14T07:10:53;98945.00;;;20.02;79.54
37200;BME280;23096;50.892;16.746;2022-08-14T07:13:21;98953.33;;;20.07;79.50
37200;BME280;23096;50.892;16.746;2022-08-14T07:15:50;98940.86;;;20.11;79.46
37200;BME280;23096;50.892;16.746;2022-08-14T07:18:24;98944.90;;;20.15;79.48
37200;BME280;23096;50.892;16.746;2022-08-14T07:20:58;98943.11;;;20.21;79.51
37200;BME280;23096;50.892;16.746;2022-08-14T07:23:22;98944.79;;;20.28;79.47
37200;BME280;23096;50.892;16.746;2022-08-14T07:25:55;98945.39;;;20.32;79.33
37200;BME280;23096;50.892;16.746;2022-08-14T07:28:25;98946.95;;;20.34;79.33
37200;BME280;23096;50.892;16.746;2022-08-14T07:30:55;98953.34;;;20.36;79.24
37200;BME280;23096;50.892;16.746;2022-08-14T07:33:27;98942.55;;;20.35;79.16
37200;BME280;23096;50.892;16.746;2022-08-14T07:35:56;98943.03;;;20.34;79.09
37200;BME280;23096;50.892;16.746;2022-08-14T07:38:25;98941.95;;;20.31;78.97
37200;BME280;23096;50.892;16.746;2022-08-14T07:40:54;98945.87;;;20.25;78.87
37200;BME280;23096;50.892;16.746;2022-08-14T07:43:21;98942.28;;;20.21;78.87
37200;BME280;23096;50.892;16.746;2022-08-14T07:45:48;98941.57;;;20.19;78.91
37200;BME280;23096;50.892;16.746;2022-08-14T07:48:14;98947.41;;;20.17;78.80
37200;BME280;23096;50.892;16.746;2022-08-14T07:53:57;98943.47;;;20.05;78.77
37200;BME280;23096;50.892;16.746;2022-08-14T07:56:28;98933.82;;;19.95;78.72
37200;BME280;23096;50.892;16.746;2022-08-14T07:58:56;98929.30;;;19.91;78.82
37200;BME280;23096;50.892;16.746;2022-08-14T08:01:23;98927.13;;;19.90;78.91
37200;BME280;23096;50.892;16.746;2022-08-14T08:03:50;98926.09;;;19.93;79.03
37200;BME280;23096;50.892;16.746;2022-08-14T08:06:17;98928.82;;;19.97;79.11
37200;BME280;23096;50.892;16.746;2022-08-14T08:08:44;98924.19;;;20.01;79.17
37200;BME280;23096;50.892;16.746;2022-08-14T08:11:13;98921.09;;;20.01;79.17
37200;BME280;23096;50.892;16.746;2022-08-14T08:13:41;98925.76;;;20.03;79.25
37200;BME280;23096;50.892;16.746;2022-08-14T08:16:07;98923.14;;;20.03;79.27
37200;BME280;23096;50.892;16.746;2022-08-14T08:18:35;98920.05;;;20.04;79.29
37200;BME280;23096;50.892;16.746;2022-08-14T08:21:01;98922.66;;;20.04;79.31
37200;BME280;23096;50.892;16.746;2022-08-14T08:23:29;98921.35;;;20.04;79.39
37200;BME280;23096;50.892;16.746;2022-08-14T08:25:57;98914.33;;;20.04;79.45
37200;BME280;23096;50.892;16.746;2022-08-14T08:28:25;98914.22;;;20.06;79.53
37200;BME280;23096;50.892;16.746;2022-08-14T08:30:58;98910.90;;;20.09;79.61
37200;BME280;23096;50.892;16.746;2022-08-14T08:33:28;98910.30;;;20.11;79.65
37200;BME280;23096;50.892;16.746;2022-08-14T08:36:06;98919.56;;;20.16;79.75
37200;BME280;23096;50.892;16.746;2022-08-14T08:38:30;98911.13;;;20.18;79.76
37200;BME280;23096;50.892;16.746;2022-08-14T08:40:59;98909.36;;;20.24;79.93
37200;BME280;23096;50.892;16.746;2022-08-14T08:43:32;98913.40;;;20.28;79.95
37200;BME280;23096;50.892;16.746;2022-08-14T08:46:04;98915.78;;;20.31;79.98
37200;BME280;23096;50.892;16.746;2022-08-14T08:48:46;98916.87;;;20.34;80.01
37200;BME280;23096;50.892;16.746;2022-08-14T08:54:09;98903.66;;;20.41;80.08
37200;BME280;23096;50.892;16.746;2022-08-14T08:56:42;98894.62;;;20.45;80.18
37200;BME280;23096;50.892;16.746;2022-08-14T08:59:26;98894.97;;;20.58;80.32
37200;BME280;23096;50.892;16.746;2022-08-14T09:02:00;98896.75;;;20.63;80.25
37200;BME280;23096;50.892;16.746;2022-08-14T09:04:33;98890.68;;;20.68;80.31
37200;BME280;23096;50.892;16.746;2022-08-14T09:07:09;98894.38;;;20.71;80.17
37200;BME280;23096;50.892;16.746;2022-08-14T09:09:36;98891.03;;;20.75;80.23
37200;BME280;23096;50.892;16.746;2022-08-14T09:12:05;98885.28;;;20.86;80.39
37200;BME280;23096;50.892;16.746;2022-08-14T09:14:33;98888.48;;;21.01;80.41
37200;BME280;23096;50.892;16.746;2022-08-14T09:17:01;98890.56;;;21.13;80.43
37200;BME280;23096;50.892;16.746;2022-08-14T09:19:27;98884.42;;;21.30;80.48
37200;BME280;23096;50.892;16.746;2022-08-14T09:21:53;98884.36;;;21.41;80.34
37200;BME280;23096;50.892;16.746;2022-08-14T09:24:20;98879.73;;;21.50;80.19
37200;BME280;23096;50.892;16.746;2022-08-14T09:26:47;98875.77;;;21.56;80.04
37200;BME280;23096;50.892;16.746;2022-08-14T09:29:13;98879.05;;;21.63;80.03
37200;BME280;23096;50.892;16.746;2022-08-14T09:31:44;98880.20;;;21.71;79.89
37200;BME280;23096;50.892;16.746;2022-08-14T09:34:38;98874.34;;;21.73;79.74
37200;BME280;23096;50.892;16.746;2022-08-14T09:40:11;98877.02;;;21.82;79.55
37200;BME280;23096;50.892;16.746;2022-08-14T09:48:15;98868.94;;;21.95;79.32
37200;BME280;23096;50.892;16.746;2022-08-14T09:50:49;98869.74;;;22.01;79.17
37200;BME280;23096;50.892;16.746;2022-08-14T09:54:20;98860.44;;;22.03;79.03
37200;BME280;23096;50.892;16.746;2022-08-14T09:56:09;98863.27;;;22.06;78.97
37200;BME280;23096;50.892;16.746;2022-08-14T09:58:43;98862.65;;;22.08;78.75
37200;BME280;23096;50.892;16.746;2022-08-14T10:01:15;98860.77;;;22.04;78.55
37200;BME280;23096;50.892;16.746;2022-08-14T10:03:55;98855.19;;;22.03;78.50
37200;BME280;23096;50.892;16.746;2022-08-14T10:06:24;98854.09;;;22.06;78.54
37200;BME280;23096;50.892;16.746;2022-08-14T10:11:31;98838.25;;;22.17;78.51
37200;BME280;23096;50.892;16.746;2022-08-14T10:14:21;98833.56;;;22.20;78.38
37200;BME280;23096;50.892;16.746;2022-08-14T10:16:47;98839.15;;;22.27;78.44
37200;BME280;23096;50.892;16.746;2022-08-14T10:19:24;98834.28;;;22.38;78.34
37200;BME280;23096;50.892;16.746;2022-08-14T10:22:05;98834.84;;;22.42;78.16
37200;BME280;23096;50.892;16.746;2022-08-14T10:24:41;98837.83;;;22.43;78.01
37200;BME280;23096;50.892;16.746;2022-08-14T10:27:17;98832.29;;;22.46;77.96
37200;BME280;23096;50.892;16.746;2022-08-14T10:29:54;98830.98;;;22.46;77.71
37200;BME280;23096;50.892;16.746;2022-08-14T10:32:21;98831.90;;;22.50;77.72
37200;BME280;23096;50.892;16.746;2022-08-14T10:34:49;98827.84;;;22.62;77.82
37200;BME280;23096;50.892;16.746;2022-08-14T10:37:17;98831.88;;;22.75;77.76
37200;BME280;23096;50.892;16.746;2022-08-14T10:39:58;98828.82;;;22.80;77.48
37200;BME280;23096;50.892;16.746;2022-08-14T10:42:37;98834.89;;;22.81;77.25
37200;BME280;23096;50.892;16.746;2022-08-14T10:47:51;98831.58;;;22.78;76.84
37200;BME280;23096;50.892;16.746;2022-08-14T10:50:32;98830.76;;;22.78;76.66
37200;BME280;23096;50.892;16.746;2022-08-14T10:53:00;98831.58;;;22.78;76.55
37200;BME280;23096;50.892;16.746;2022-08-14T10:55:36;98827.08;;;22.75;76.29
37200;BME280;23096;50.892;16.746;2022-08-14T10:58:07;98822.66;;;22.66;76.00
37200;BME280;23096;50.892;16.746;2022-08-14T11:00:38;98820.65;;;22.54;75.94
37200;BME280;23096;50.892;16.746;2022-08-14T11:05:40;98826.59;;;22.31;75.75
37200;BME280;23096;50.892;16.746;2022-08-14T11:08:11;98825.69;;;22.20;75.70
37200;BME280;23096;50.892;16.746;2022-08-14T11:11:05;98833.28;;;22.14;75.70
37200;BME280;23096;50.892;16.746;2022-08-14T11:13:24;98835.39;;;22.05;75.62
37200;BME280;23096;50.892;16.746;2022-08-14T11:15:53;98831.45;;;21.89;75.55
37200;BME280;23096;50.892;16.746;2022-08-14T11:18:21;98833.92;;;21.75;75.59
37200;BME280;23096;50.892;16.746;2022-08-14T11:20:51;98824.45;;;21.69;75.66
37200;BME280;23096;50.892;16.746;2022-08-14T11:23:21;98820.56;;;21.63;75.74
37200;BME280;23096;50.892;16.746;2022-08-14T11:25:53;98818.68;;;21.59;75.81
37200;BME280;23096;50.892;16.746;2022-08-14T11:28:24;98830.36;;;21.55;75.93
37200;BME280;23096;50.892;16.746;2022-08-14T11:30:52;98823.59;;;21.53;76.00
37200;BME280;23096;50.892;16.746;2022-08-14T11:33:25;98822.08;;;21.50;76.09
37200;BME280;23096;50.892;16.746;2022-08-14T11:35:58;98815.65;;;21.49;76.18
37200;BME280;23096;50.892;16.746;2022-08-14T11:38:26;98820.04;;;21.48;76.31
37200;BME280;23096;50.892;16.746;2022-08-14T11:40:56;98815.53;;;21.50;76.43
37200;BME280;23096;50.892;16.746;2022-08-14T11:43:23;98811.59;;;21.50;76.53
37200;BME280;23096;50.892;16.746;2022-08-14T11:45:50;98812.41;;;21.51;76.60
37200;BME280;23096;50.892;16.746;2022-08-14T11:48:23;98815.03;;;21.51;76.70
37200;BME280;23096;50.892;16.746;2022-08-14T11:50:48;98806.36;;;21.50;76.80
37200;BME280;23096;50.892;16.746;2022-08-14T11:53:27;98812.30;;;21.52;76.92
37200;BME280;23096;50.892;16.746;2022-08-14T11:55:58;98805.46;;;21.55;77.05
37200;BME280;23096;50.892;16.746;2022-08-14T11:58:33;98806.19;;;21.57;77.13
37200;BME280;23096;50.892;16.746;2022-08-14T12:01:07;98807.22;;;21.60;77.26
37200;BME280;23096;50.892;16.746;2022-08-14T12:03:41;98806.97;;;21.63;77.39
37200;BME280;23096;50.892;16.746;2022-08-14T12:06:13;98808.03;;;21.67;77.42
37200;BME280;23096;50.892;16.746;2022-08-14T12:08:41;98806.10;;;21.69;77.49
37200;BME280;23096;50.892;16.746;2022-08-14T12:11:10;98799.88;;;21.70;77.56
37200;BME280;23096;50.892;16.746;2022-08-14T12:13:39;98799.27;;;21.72;77.65
37200;BME280;23096;50.892;16.746;2022-08-14T12:16:10;98799.02;;;21.75;77.68
37200;BME280;23096;50.892;16.746;2022-08-14T12:18:40;98787.30;;;21.79;77.77
37200;BME280;23096;50.892;16.746;2022-08-14T12:21:22;98786.17;;;21.87;77.87
37200;BME280;23096;50.892;16.746;2022-08-14T12:24:06;98779.82;;;21.90;77.79
37200;BME280;23096;50.892;16.746;2022-08-14T12:26:34;98774.24;;;21.89;77.83
37200;BME280;23096;50.892;16.746;2022-08-14T12:29:14;98769.56;;;21.92;77.94
37200;BME280;23096;50.892;16.746;2022-08-14T12:31:42;98765.16;;;22.02;78.13
37200;BME280;23096;50.892;16.746;2022-08-14T12:34:12;98752.72;;;22.10;78.20
37200;BME280;23096;50.892;16.746;2022-08-14T12:36:40;98751.61;;;22.23;78.33
37200;BME280;23096;50.892;16.746;2022-08-14T12:39:19;98755.95;;;22.33;78.42
37200;BME280;23096;50.892;16.746;2022-08-14T12:41:53;98761.55;;;22.44;78.40
37200;BME280;23096;50.892;16.746;2022-08-14T12:44:28;98754.05;;;22.55;78.46
37200;BME280;23096;50.892;16.746;2022-08-14T12:47:08;98752.26;;;22.65;78.42
37200;BME280;23096;50.892;16.746;2022-08-14T12:49:46;98744.59;;;22.77;78.43
37200;BME280;23096;50.892;16.746;2022-08-14T12:52:35;98742.42;;;22.96;78.52
37200;BME280;23096;50.892;16.746;2022-08-14T12:55:01;98744.88;;;23.13;78.44
37200;BME280;23096;50.892;16.746;2022-08-14T13:00:13;98744.89;;;23.37;78.10
37200;BME280;23096;50.892;16.746;2022-08-14T13:02:49;98744.76;;;23.29;77.61
37200;BME280;23096;50.892;16.746;2022-08-14T13:05:24;98746.95;;;23.10;77.07
37200;BME280;23096;50.892;16.746;2022-08-14T13:07:53;98748.41;;;22.79;76.66
37200;BME280;23096;50.892;16.746;2022-08-14T13:10:20;98752.93;;;22.48;76.36
37200;BME280;23096;50.892;16.746;2022-08-14T13:12:49;98750.17;;;22.24;76.51
37200;BME280;23096;50.892;16.746;2022-08-14T13:15:16;98747.59;;;22.09;76.70
37200;BME280;23096;50.892;16.746;2022-08-14T13:17:49;98755.30;;;22.00;76.86
37200;BME280;23096;50.892;16.746;2022-08-14T13:20:20;98748.09;;;21.93;77.02
37200;BME280;23096;50.892;16.746;2022-08-14T13:22:48;98742.91;;;21.87;77.05
37200;BME280;23096;50.892;16.746;2022-08-14T13:25:16;98744.53;;;21.78;77.12
37200;BME280;23096;50.892;16.746;2022-08-14T13:27:47;98735.41;;;21.73;77.17
37200;BME280;23096;50.892;16.746;2022-08-14T13:30:16;98740.33;;;21.66;77.25
37200;BME280;23096;50.892;16.746;2022-08-14T13:32:45;98736.45;;;21.60;77.30
37200;BME280;23096;50.892;16.746;2022-08-14T13:35:13;98741.61;;;21.56;77.49
37200;BME280;23096;50.892;16.746;2022-08-14T13:37:41;98744.36;;;21.55;77.53
37200;BME280;23096;50.892;16.746;2022-08-14T13:40:11;98734.28;;;21.50;77.62
37200;BME280;23096;50.892;16.746;2022-08-14T13:42:42;98732.25;;;21.48;77.71
37200;BME280;23096;50.892;16.746;2022-08-14T13:45:09;98726.19;;;21.48;77.82
37200;BME280;23096;50.892;16.746;2022-08-14T13:47:37;98717.38;;;21.49;78.00
37200;BME280;23096;50.892;16.746;2022-08-14T13:50:06;98718.89;;;21.51;78.07
37200;BME280;23096;50.892;16.746;2022-08-14T13:52:42;98714.22;;;21.55;78.11
37200;BME280;23096;50.892;16.746;2022-08-14T13:55:14;98702.30;;;21.56;78.15
37200;BME280;23096;50.892;16.746;2022-08-14T13:57:44;98699.55;;;21.58;78.19
37200;BME280;23096;50.892;16.746;2022-08-14T14:00:13;98701.06;;;21.60;78.28
37200;BME280;23096;50.892;16.746;2022-08-14T14:02:44;98699.14;;;21.62;78.37
37200;BME280;23096;50.892;16.746;2022-08-14T14:05:17;98694.95;;;21.66;78.43
37200;BME280;23096;50.892;16.746;2022-08-14T14:07:45;98687.85;;;21.72;78.52
37200;BME280;23096;50.892;16.746;2022-08-14T14:10:16;98685.66;;;21.77;78.60
37200;BME280;23096;50.892;16.746;2022-08-14T14:12:47;98681.67;;;21.82;78.66
37200;BME280;23096;50.892;16.746;2022-08-14T14:15:17;98676.73;;;21.89;78.76
37200;BME280;23096;50.892;16.746;2022-08-14T14:17:46;98669.63;;;21.95;78.84
37200;BME280;23096;50.892;16.746;2022-08-14T14:20:17;98662.88;;;22.02;78.95
37200;BME280;23096;50.892;16.746;2022-08-14T14:22:46;98667.34;;;22.12;79.07
37200;BME280;23096;50.892;16.746;2022-08-14T14:25:16;98662.91;;;22.22;79.20
37200;BME280;23096;50.892;16.746;2022-08-14T14:27:45;98669.84;;;22.33;79.22
37200;BME280;23096;50.892;16.746;2022-08-14T14:30:15;98663.63;;;22.44;79.24
37200;BME280;23096;50.892;16.746;2022-08-14T14:32:43;98658.92;;;22.57;79.34
37200;BME280;23096;50.892;16.746;2022-08-14T14:35:15;98654.98;;;22.67;79.21
37200;BME280;23096;50.892;16.746;2022-08-14T14:37:46;98656.77;;;22.76;79.19
37200;BME280;23096;50.892;16.746;2022-08-14T14:40:15;98651.84;;;22.87;79.24
37200;BME280;23096;50.892;16.746;2022-08-14T14:42:44;98652.03;;;22.89;79.05
37200;BME280;23096;50.892;16.746;2022-08-14T14:45:15;98647.69;;;22.94;79.03
37200;BME280;23096;50.892;16.746;2022-08-14T14:47:49;98646.47;;;23.02;79.05
37200;BME280;23096;50.892;16.746;2022-08-14T14:50:18;98654.78;;;23.07;78.92
37200;BME280;23096;50.892;16.746;2022-08-14T14:52:46;98661.22;;;22.99;78.46
37200;BME280;23096;50.892;16.746;2022-08-14T14:55:15;98656.38;;;22.51;77.37
37200;BME280;23096;50.892;16.746;2022-08-14T14:57:43;98673.42;;;21.87;76.73
37200;BME280;23096;50.892;16.746;2022-08-14T15:00:18;98676.91;;;21.41;76.88
37200;BME280;23096;50.892;16.746;2022-08-14T15:02:46;98665.89;;;21.17;77.02
37200;BME280;23096;50.892;16.746;2022-08-14T15:05:15;98666.47;;;21.05;77.19
37200;BME280;23096;50.892;16.746;2022-08-14T15:07:43;98661.64;;;20.95;77.33
37200;BME280;23096;50.892;16.746;2022-08-14T15:10:13;98660.53;;;20.82;77.15
37200;BME280;23096;50.892;16.746;2022-08-14T15:12:40;98654.75;;;20.73;77.46
37200;BME280;23096;50.892;16.746;2022-08-14T15:15:08;98654.67;;;20.68;77.67
37200;BME280;23096;50.892;16.746;2022-08-14T15:17:36;98647.97;;;20.70;77.81
37200;BME280;23096;50.892;16.746;2022-08-14T15:20:07;98640.03;;;20.66;77.83
37200;BME280;23096;50.892;16.746;2022-08-14T15:22:37;98643.02;;;20.67;78.11
37200;BME280;23096;50.892;16.746;2022-08-14T15:25:05;98636.07;;;20.72;78.30
37200;BME280;23096;50.892;16.746;2022-08-14T15:27:37;98637.01;;;20.76;78.47
37200;BME280;23096;50.892;16.746;2022-08-14T15:30:05;98629.94;;;20.82;78.64
37200;BME280;23096;50.892;16.746;2022-08-14T15:32:33;98627.77;;;20.87;78.79
37200;BME280;23096;50.892;16.746;2022-08-14T15:34:59;98616.92;;;20.92;78.91
37200;BME280;23096;50.892;16.746;2022-08-14T15:37:26;98616.75;;;20.99;79.01
37200;BME280;23096;50.892;16.746;2022-08-14T15:39:53;98614.09;;;21.05;79.07
37200;BME280;23096;50.892;16.746;2022-08-14T15:42:20;98605.95;;;21.08;79.10
37200;BME280;23096;50.892;16.746;2022-08-14T15:44:49;98612.86;;;21.09;79.11
37200;BME280;23096;50.892;16.746;2022-08-14T15:47:16;98612.03;;;21.09;79.18
37200;BME280;23096;50.892;16.746;2022-08-14T15:49:43;98608.68;;;21.12;79.27
37200;BME280;23096;50.892;16.746;2022-08-14T15:52:10;98604.95;;;21.15;79.28
37200;BME280;23096;50.892;16.746;2022-08-14T15:54:36;98610.68;;;21.14;79.28
37200;BME280;23096;50.892;16.746;2022-08-14T15:57:06;98602.33;;;21.15;79.30
37200;BME280;23096;50.892;16.746;2022-08-14T15:59:34;98609.70;;;21.15;79.37
37200;BME280;23096;50.892;16.746;2022-08-14T16:02:20;98609.09;;;21.17;79.39
37200;BME280;23096;50.892;16.746;2022-08-14T16:04:49;98614.69;;;21.18;79.35
37200;BME280;23096;50.892;16.746;2022-08-14T16:07:16;98615.30;;;21.16;79.40
37200;BME280;23096;50.892;16.746;2022-08-14T16:09:42;98612.69;;;21.16;79.39
37200;BME280;23096;50.892;16.746;2022-08-14T16:12:09;98612.61;;;21.12;79.42
37200;BME280;23096;50.892;16.746;2022-08-14T16:14:36;98607.83;;;21.12;79.47
37200;BME280;23096;50.892;16.746;2022-08-14T16:17:07;98607.26;;;21.08;79.36
37200;BME280;23096;50.892;16.746;2022-08-14T16:19:34;98605.38;;;21.04;79.41
37200;BME280;23096;50.892;16.746;2022-08-14T16:22:08;98605.66;;;21.01;79.45
37200;BME280;23096;50.892;16.746;2022-08-14T16:24:39;98611.36;;;21.01;79.48
37200;BME280;23096;50.892;16.746;2022-08-14T16:27:08;98603.55;;;20.95;79.45
37200;BME280;23096;50.892;16.746;2022-08-14T16:29:38;98602.03;;;20.93;79.53
37200;BME280;23096;50.892;16.746;2022-08-14T16:32:07;98602.28;;;20.90;79.48
37200;BME280;23096;50.892;16.746;2022-08-14T16:34:37;98599.92;;;20.86;79.55
37200;BME280;23096;50.892;16.746;2022-08-14T16:39:42;98600.77;;;20.87;79.66
37200;BME280;23096;50.892;16.746;2022-08-14T16:42:11;98599.50;;;20.81;79.68
37200;BME280;23096;50.892;16.746;2022-08-14T16:44:39;98607.23;;;20.77;79.70
37200;BME280;23096;50.892;16.746;2022-08-14T16:47:11;98609.86;;;20.77;79.74
37200;BME280;23096;50.892;16.746;2022-08-14T16:49:40;98611.45;;;20.74;79.75
37200;BME280;23096;50.892;16.746;2022-08-14T16:52:09;98604.70;;;20.66;79.70
37200;BME280;23096;50.892;16.746;2022-08-14T16:54:39;98606.41;;;20.61;79.79
37200;BME280;23096;50.892;16.746;2022-08-14T16:57:17;98612.80;;;20.57;79.84
37200;BME280;23096;50.892;16.746;2022-08-14T16:59:55;98611.28;;;20.55;79.89
37200;BME280;23096;50.892;16.746;2022-08-14T17:02:35;98610.80;;;20.55;80.05
37200;BME280;23096;50.892;16.746;2022-08-14T17:05:23;98612.80;;;20.57;80.06
37200;BME280;23096;50.892;16.746;2022-08-14T17:13:26;98614.59;;;20.62;80.14
37200;BME280;23096;50.892;16.746;2022-08-14T17:18:46;98597.09;;;20.63;80.13
37200;BME280;23096;50.892;16.746;2022-08-14T17:21:29;98593.66;;;20.62;80.10
37200;BME280;23096;50.892;16.746;2022-08-14T17:24:03;98595.55;;;20.60;80.15
37200;BME280;23096;50.892;16.746;2022-08-14T17:31:57;98602.12;;;20.55;80.14
37200;BME280;23096;50.892;16.746;2022-08-14T17:37:48;98592.43;;;20.45;80.07
37200;BME280;23096;50.892;16.746;2022-08-14T17:45:24;98606.61;;;20.37;80.31
37200;BME280;23096;50.892;16.746;2022-08-14T17:47:55;98601.25;;;20.39;80.33
37200;BME280;23096;50.892;16.746;2022-08-14T17:53:13;98589.97;;;20.38;80.36
37200;BME280;23096;50.892;16.746;2022-08-14T17:55:42;98589.97;;;20.38;80.37
37200;BME280;23096;50.892;16.746;2022-08-14T17:58:12;98588.17;;;20.39;80.42
37200;BME280;23096;50.892;16.746;2022-08-14T18:00:41;98586.38;;;20.39;80.48
37200;BME280;23096;50.892;16.746;2022-08-14T18:03:10;98594.11;;;20.41;80.49
37200;BME280;23096;50.892;16.746;2022-08-14T18:05:43;98592.09;;;20.39;80.45
37200;BME280;23096;50.892;16.746;2022-08-14T18:08:12;98591.03;;;20.36;80.44
37200;BME280;23096;50.892;16.746;2022-08-14T18:10:41;98590.22;;;20.35;80.46
37200;BME280;23096;50.892;16.746;2022-08-14T18:13:11;98593.23;;;20.30;80.43
37200;BME280;23096;50.892;16.746;2022-08-14T18:15:39;98587.51;;;20.31;80.48
37200;BME280;23096;50.892;16.746;2022-08-14T18:18:09;98585.74;;;20.26;80.45
37200;BME280;23096;50.892;16.746;2022-08-14T18:20:38;98586.23;;;20.25;80.46
37200;BME280;23096;50.892;16.746;2022-08-14T18:23:06;98585.17;;;20.22;80.42
37200;BME280;23096;50.892;16.746;2022-08-14T18:25:56;98593.63;;;20.20;80.46
37200;BME280;23096;50.892;16.746;2022-08-14T18:28:15;98591.95;;;20.19;80.55
37200;BME280;23096;50.892;16.746;2022-08-14T18:30:42;98594.69;;;20.18;80.46
37200;BME280;23096;50.892;16.746;2022-08-14T18:33:20;98594.95;;;20.15;80.46
37200;BME280;23096;50.892;16.746;2022-08-14T18:35:51;98597.69;;;20.13;80.46
37200;BME280;23096;50.892;16.746;2022-08-14T18:38:20;98589.39;;;20.08;80.40
37200;BME280;23096;50.892;16.746;2022-08-14T18:40:49;98595.58;;;20.01;80.37
37200;BME280;23096;50.892;16.746;2022-08-14T18:46:09;98593.38;;;19.91;80.46
37200;BME280;23096;50.892;16.746;2022-08-14T18:48:36;98598.14;;;19.86;80.48
37200;BME280;23096;50.892;16.746;2022-08-14T18:51:06;98595.55;;;19.80;80.48